Time;durP1;ratioP1;P1;durP2;ratioP2;P2;SDS_P1;SDS_P2;PMS_P1;PMS_P2;Temp;Humidity;BMP_temperature;BMP_pressure;BME280_temperature;BME280_humidity;BME280_pressure;Samples;Min_cycle;Max_cycle;Signal;HPM_P1;HPM_P2
2022/07/13 00:01:35;;;;;;;5.78;5.47;;;;;;;20.36;84.69;101908.94;6022505;23;20003;-69
2022/07/13 00:04:04;;;;;;;6.65;6.35;;;;;;;20.41;84.25;101928.97;6021144;23;20265;-70
2022/07/13 00:06:31;;;;;;;5.85;5.55;;;;;;;20.29;84.42;101904.06;6019569;23;20019;-70
2022/07/13 00:08:57;;;;;;;7.40;7.05;;;;;;;20.21;84.26;101885.13;6024761;23;20106;-70
2022/07/13 00:11:24;;;;;;;5.70;5.40;;;;;;;20.25;83.89;101886.59;6018118;23;20026;-70
2022/07/13 00:13:50;;;;;;;7.25;6.85;;;;;;;20.43;84.92;101908.38;6019978;23;20019;-70
2022/07/13 00:16:17;;;;;;;5.60;5.30;;;;;;;20.58;85.34;101921.53;6029353;23;20014;-70
2022/07/13 00:18:43;;;;;;;5.38;5.18;;;;;;;20.49;83.92;101907.06;5995708;23;20027;-70
2022/07/13 00:21:10;;;;;;;5.80;5.50;;;;;;;20.46;82.40;101907.28;6025339;23;20015;-71
2022/07/13 00:23:36;;;;;;;5.55;5.25;;;;;;;20.49;82.60;101912.41;6037466;23;20077;-70
2022/07/13 00:26:03;;;;;;;6.95;6.55;;;;;;;20.29;82.46;101874.75;5989243;23;20037;-71
2022/07/13 00:28:29;;;;;;;5.70;5.40;;;;;;;20.26;81.01;101852.78;6022629;23;20022;-69
2022/07/13 00:30:56;;;;;;;6.78;6.47;;;;;;;20.40;79.63;101876.59;6024608;23;20574;-70
2022/07/13 00:33:22;;;;;;;5.50;5.25;;;;;;;20.77;78.64;101927.19;6027011;23;20409;-70
2022/07/13 00:35:49;;;;;;;7.00;6.65;;;;;;;20.67;77.48;101915.53;6027506;23;20011;-70
2022/07/13 00:38:15;;;;;;;5.25;5.05;;;;;;;20.83;76.58;101924.06;6019417;23;20093;-69
2022/07/13 00:40:42;;;;;;;5.70;5.40;;;;;;;20.85;76.19;101922.13;5998272;23;20049;-70
2022/07/13 00:43:08;;;;;;;5.90;5.60;;;;;;;20.68;74.99;101886.06;6023024;23;20014;-70
2022/07/13 00:45:34;;;;;;;5.90;5.60;;;;;;;20.78;74.63;101890.69;5996199;23;20093;-70
2022/07/13 00:48:01;;;;;;;7.78;7.35;;;;;;;20.59;73.51;101845.91;6013374;23;20044;-70
2022/07/13 00:50:28;;;;;;;5.90;5.60;;;;;;;20.84;72.54;101890.22;6025576;23;20101;-70
2022/07/13 00:52:54;;;;;;;7.18;6.85;;;;;;;20.81;71.31;101871.81;6012779;23;20040;-70
2022/07/13 00:55:22;;;;;;;5.93;5.63;;;;;;;21.03;69.90;101900.34;6026696;23;20031;-70
2022/07/13 00:57:48;;;;;;;6.78;6.43;;;;;;;21.05;69.65;101883.22;6019271;23;20017;-70
2022/07/13 01:00:15;;;;;;;6.00;5.70;;;;;;;20.83;69.46;101852.03;6022094;23;20524;-70
2022/07/13 01:02:44;;;;;;;5.30;5.10;;;;;;;21.07;68.87;101878.63;6016429;23;20082;-70
2022/07/13 01:05:12;;;;;;;5.60;5.30;;;;;;;21.07;69.09;101875.97;6015753;23;20046;-69
2022/07/13 01:07:39;;;;;;;6.22;5.85;;;;;;;20.91;69.79;101838.09;5994100;23;20086;-70
2022/07/13 01:10:08;;;;;;;6.03;5.63;;;;;;;21.05;70.51;101864.56;5966704;23;20217;-69
2022/07/13 01:12:36;;;;;;;5.72;5.43;;;;;;;21.01;70.99;101863.09;5992740;23;20038;-70
2022/07/13 01:15:06;;;;;;;6.68;6.38;;;;;;;20.78;71.60;101821.31;5998937;23;20235;-70
2022/07/13 01:17:35;;;;;;;5.75;5.40;;;;;;;20.92;72.42;101847.78;5994154;23;20543;-70
2022/07/13 01:20:03;;;;;;;6.70;6.40;;;;;;;20.88;72.56;101846.31;5994297;23;20102;-70
2022/07/13 01:22:44;;;;;;;6.45;6.05;;;;;;;20.67;73.34;101811.50;5957631;23;20513;-70
2022/07/13 01:25:12;;;;;;;5.80;5.50;;;;;;;20.66;73.45;101831.13;5988091;23;20019;-70
2022/07/13 01:27:41;;;;;;;5.80;5.50;;;;;;;20.80;73.49;101859.41;5997463;23;20211;-70
2022/07/13 01:30:08;;;;;;;5.65;5.28;;;;;;;20.50;74.11;101810.09;5987280;23;20085;-70
2022/07/13 01:32:42;;;;;;;5.68;5.38;;;;;;;20.74;73.30;101852.72;6001496;23;20365;-70
2022/07/13 01:35:09;;;;;;;6.18;5.82;;;;;;;20.75;73.15;101859.78;5992877;23;20102;-70
2022/07/13 01:37:35;;;;;;;5.72;5.43;;;;;;;20.74;72.76;101854.56;5998113;23;20023;-69
2022/07/13 01:40:02;;;;;;;8.15;7.57;;;;;;;20.72;72.44;101862.66;5997473;23;20266;-70
2022/07/13 01:42:29;;;;;;;5.60;5.30;;;;;;;20.62;72.56;101817.16;6005188;23;20030;-70
2022/07/13 01:44:55;;;;;;;7.65;7.15;;;;;;;20.69;72.39;101830.91;5965556;23;20410;-70
2022/07/13 01:47:22;;;;;;;5.85;5.55;;;;;;;20.66;72.65;101825.78;6002439;23;20019;-70
2022/07/13 01:49:48;;;;;;;7.25;6.85;;;;;;;20.59;73.72;101806.75;5994887;23;20096;-68
2022/07/13 01:52:15;;;;;;;7.32;6.93;;;;;;;20.02;73.03;101717.75;5998018;23;20019;-69
2022/07/13 01:54:41;;;;;;;5.80;5.50;;;;;;;20.44;73.02;101798.06;6003056;23;20015;-69
2022/07/13 01:57:08;;;;;;;5.47;5.28;;;;;;;20.42;73.05;101808.00;5996246;23;20031;-69
2022/07/13 01:59:34;;;;;;;5.32;5.13;;;;;;;20.36;73.03;101804.97;5979311;23;20028;-70
2022/07/13 02:02:00;;;;;;;7.07;6.78;;;;;;;20.36;72.98;101794.28;5995953;23;20019;-70
2022/07/13 02:04:27;;;;;;;5.70;5.40;;;;;;;20.22;74.22;101769.53;5998383;23;20027;-69
2022/07/13 02:06:53;;;;;;;6.78;6.43;;;;;;;19.97;74.73;101762.56;6023751;23;20588;-70
2022/07/13 02:09:20;;;;;;;6.13;5.82;;;;;;;20.03;75.05;101758.59;6028994;23;20120;-71
2022/07/13 02:11:46;;;;;;;6.13;5.82;;;;;;;20.29;74.77;101805.44;6026339;23;20007;-71
2022/07/13 02:14:12;;;;;;;5.93;5.63;;;;;;;20.23;75.61;101797.06;6020775;23;20351;-71
2022/07/13 02:16:39;;;;;;;5.95;5.65;;;;;;;20.18;76.22;101796.53;5975851;23;20011;-71
2022/07/13 02:19:05;;;;;;;5.35;5.10;;;;;;;20.15;76.99;101797.63;6018411;23;20120;-70
2022/07/13 02:21:32;;;;;;;5.45;5.15;;;;;;;20.14;78.15;101795.91;5999563;23;20105;-70
2022/07/13 02:23:58;;;;;;;6.40;6.10;;;;;;;19.88;76.65;101739.25;6028744;23;20077;-70
2022/07/13 02:26:25;;;;;;;5.35;5.15;;;;;;;19.86;75.72;101739.34;6027794;23;20556;-69
2022/07/13 02:28:52;;;;;;;7.38;6.97;;;;;;;20.08;75.49;101775.91;6028250;23;20051;-69
2022/07/13 02:31:19;;;;;;;5.88;5.57;;;;;;;19.85;75.15;101742.16;6004343;23;20046;-69
2022/07/13 02:33:47;;;;;;;6.43;5.82;;;;;;;20.14;74.60;101819.91;6028547;23;20034;-70
2022/07/13 02:36:14;;;;;;;5.47;5.28;;;;;;;20.18;74.15;101813.38;6027626;23;20034;-70
2022/07/13 02:38:40;;;;;;;5.53;5.28;;;;;;;19.88;73.88;101741.91;6023109;23;20019;-70
2022/07/13 02:41:07;;;;;;;5.65;5.35;;;;;;;20.16;75.44;101798.47;6023201;23;20207;-69
2022/07/13 02:43:33;;;;;;;5.57;5.32;;;;;;;20.13;75.40;101795.06;6013390;23;20011;-69
2022/07/13 02:46:00;;;;;;;7.13;6.72;;;;;;;20.10;75.77;101783.78;5994276;23;20473;-70
2022/07/13 02:48:26;;;;;;;5.75;5.45;;;;;;;20.04;74.97;101769.09;6022047;23;20069;-70
2022/07/13 02:50:52;;;;;;;5.57;5.28;;;;;;;19.89;74.54;101743.63;5995856;23;20045;-69
2022/07/13 02:53:19;;;;;;;7.18;6.88;;;;;;;19.99;74.54;101757.13;6018097;23;20022;-70
2022/07/13 02:55:45;;;;;;;5.60;5.38;;;;;;;19.78;75.53;101725.75;6026005;23;20097;-70
2022/07/13 02:58:12;;;;;;;5.28;5.07;;;;;;;19.81;75.51;101730.88;6028298;23;20365;-71
2022/07/13 03:00:38;;;;;;;5.40;5.20;;;;;;;19.73;75.85;101736.78;6029308;23;20093;-71
2022/07/13 03:03:05;;;;;;;5.82;5.53;;;;;;;19.82;75.84;101764.53;6016250;23;20025;-70
2022/07/13 03:05:31;;;;;;;5.32;5.10;;;;;;;19.82;75.67;101758.34;6027532;23;20039;-70
2022/07/13 03:07:58;;;;;;;7.40;7.05;;;;;;;19.58;76.05;101729.88;6019730;23;20077;-70
2022/07/13 03:10:24;;;;;;;5.53;5.25;;;;;;;19.77;76.51;101766.69;6027592;23;20452;-70
2022/07/13 03:12:51;;;;;;;6.70;6.40;;;;;;;19.66;75.87;101738.16;6021317;23;20106;-70
2022/07/13 03:15:18;;;;;;;5.80;5.50;;;;;;;19.78;75.79;101762.22;6025035;23;20026;-70
2022/07/13 03:17:44;;;;;;;5.80;5.28;;;;;;;19.57;75.81;101728.19;6029240;23;20035;-70
2022/07/13 03:20:11;;;;;;;5.53;5.28;;;;;;;19.80;75.83;101758.47;6023379;23;20021;-70
2022/07/13 03:22:38;;;;;;;5.55;5.25;;;;;;;19.83;75.34;101752.94;6017209;23;20045;-70
2022/07/13 03:25:05;;;;;;;5.70;5.40;;;;;;;19.70;75.73;101739.66;6005464;23;20042;-70
2022/07/13 03:27:32;;;;;;;5.55;5.30;;;;;;;19.87;75.32;101753.56;6009946;23;20037;-70
2022/07/13 03:29:58;;;;;;;7.43;7.03;;;;;;;19.87;75.58;101765.06;6000042;23;20171;-70
2022/07/13 03:32:25;;;;;;;5.70;5.40;;;;;;;19.54;75.33;101699.13;6023774;23;20409;-70
2022/07/13 03:34:51;;;;;;;7.00;6.60;;;;;;;19.94;75.38;101749.44;6028422;23;20087;-70
2022/07/13 03:37:18;;;;;;;5.43;5.20;;;;;;;19.91;75.39;101742.53;6021355;23;20019;-71
2022/07/13 03:39:44;;;;;;;5.32;5.13;;;;;;;20.00;75.33;101740.16;6026950;23;20405;-71
2022/07/13 03:42:10;;;;;;;6.45;5.88;;;;;;;19.73;75.23;101707.47;6020936;23;20037;-71
2022/07/13 03:44:37;;;;;;;5.50;5.20;;;;;;;20.03;75.20;101748.75;6023892;23;20486;-72
2022/07/13 03:47:04;;;;;;;10.02;7.35;;;;;;;20.07;75.06;101752.91;6026374;23;20030;-71
2022/07/13 03:49:30;;;;;;;6.20;5.82;;;;;;;20.09;74.65;101756.28;6022220;23;20054;-71
2022/07/13 03:51:57;;;;;;;8.52;7.93;;;;;;;20.11;75.42;101756.19;6017199;23;20023;-70
2022/07/13 03:54:23;;;;;;;6.75;6.25;;;;;;;20.08;74.70;101746.59;5999454;23;20185;-71
2022/07/13 03:56:50;;;;;;;8.35;7.88;;;;;;;20.06;74.25;101747.66;6020966;23;20019;-71
2022/07/13 03:59:16;;;;;;;6.18;5.88;;;;;;;20.18;73.89;101760.06;6032191;23;20010;-72
2022/07/13 04:01:43;;;;;;;6.28;5.93;;;;;;;19.25;72.60;101622.28;6023712;23;20032;-72
2022/07/13 04:04:10;;;;;;;5.55;5.35;;;;;;;19.86;73.21;101707.38;6026141;23;20468;-72
2022/07/13 04:06:39;;;;;;;5.43;5.22;;;;;;;20.16;72.76;101754.00;6015789;23;20098;-72
2022/07/13 04:09:05;;;;;;;5.57;5.38;;;;;;;19.80;73.04;101694.53;5992650;23;20011;-72
2022/07/13 04:11:31;;;;;;;6.40;5.80;;;;;;;19.98;73.19;101742.06;5997856;23;20542;-72
2022/07/13 04:13:58;;;;;;;6.97;6.68;;;;;;;20.16;72.67;101751.34;5991836;23;20034;-72
2022/07/13 04:16:24;;;;;;;5.63;5.32;;;;;;;20.07;73.40;101744.91;6000718;23;20117;-71
2022/07/13 04:18:51;;;;;;;6.53;6.22;;;;;;;20.10;73.53;101744.66;5992068;23;20041;-71
2022/07/13 04:21:18;;;;;;;5.40;5.10;;;;;;;20.16;72.75;101729.16;5994586;23;20029;-72
2022/07/13 04:23:44;;;;;;;6.30;5.80;;;;;;;20.09;73.42;101736.78;5968945;23;20059;-70
2022/07/13 04:26:10;;;;;;;5.90;5.60;;;;;;;19.78;73.12;101680.47;5985254;23;20035;-71
2022/07/13 04:28:37;;;;;;;5.70;5.40;;;;;;;20.05;74.23;101727.34;5975516;23;20022;-71
2022/07/13 04:31:03;;;;;;;6.30;6.00;;;;;;;19.08;73.90;101591.63;5987889;23;20322;-72
2022/07/13 04:33:30;;;;;;;5.43;5.22;;;;;;;19.75;74.28;101687.88;6004236;23;20035;-71
2022/07/13 04:36:07;;;;;;;6.38;6.07;;;;;;;19.88;74.07;101713.44;5986649;23;20437;-71
2022/07/13 04:38:35;;;;;;;5.38;5.18;;;;;;;19.95;73.92;101719.19;5964042;23;20040;-72
2022/07/13 04:41:01;;;;;;;6.88;6.55;;;;;;;19.92;74.22;101695.44;5996039;23;20352;-72
2022/07/13 04:43:28;;;;;;;5.50;5.20;;;;;;;19.92;74.97;101704.28;5996397;23;20007;-71
2022/07/13 04:45:54;;;;;;;7.13;6.82;;;;;;;19.88;74.62;101704.63;5999842;23;20425;-72
2022/07/13 04:48:20;;;;;;;6.35;6.05;;;;;;;20.20;74.86;101746.63;5997959;23;20039;-72
2022/07/13 04:50:47;;;;;;;6.28;6.00;;;;;;;20.23;74.14;101735.75;5995471;23;20445;-72
2022/07/13 04:53:13;;;;;;;5.80;5.47;;;;;;;20.39;74.13;101746.09;5979029;23;20609;-71
2022/07/13 04:55:40;;;;;;;5.78;5.47;;;;;;;20.49;72.84;101741.72;5989193;23;20512;-72
2022/07/13 04:58:07;;;;;;;5.50;5.20;;;;;;;20.55;71.58;101746.59;5997086;23;20034;-71
2022/07/13 05:00:35;;;;;;;5.60;5.40;;;;;;;20.57;71.11;101731.31;5995608;23;20443;-72
2022/07/13 05:03:21;;;;;;;5.45;5.20;;;;;;;20.84;71.04;101756.81;5984280;23;20453;-71
2022/07/13 05:05:48;;;;;;;5.88;5.57;;;;;;;20.88;70.89;101763.59;6008961;23;20109;-72
2022/07/13 05:08:14;;;;;;;5.50;5.20;;;;;;;20.85;70.99;101731.84;6053067;23;20030;-72
2022/07/13 05:10:40;;;;;;;5.63;5.32;;;;;;;20.80;71.76;101729.53;6026798;23;20023;-71
2022/07/13 05:13:07;;;;;;;5.88;5.53;;;;;;;20.69;72.35;101716.19;5992584;23;20068;-72
2022/07/13 05:15:49;;;;;;;6.57;6.28;;;;;;;20.79;72.84;101722.50;6027566;23;20039;-72
2022/07/13 05:18:16;;;;;;;5.63;5.32;;;;;;;20.81;72.78;101725.06;6026395;23;20015;-72
2022/07/13 05:20:42;;;;;;;5.40;5.20;;;;;;;20.76;72.85;101703.22;6029331;23;20027;-71
2022/07/13 05:23:09;;;;;;;5.30;5.10;;;;;;;21.01;71.69;101736.81;6028757;23;20082;-72
2022/07/13 05:25:35;;;;;;;5.50;5.30;;;;;;;21.10;71.90;101739.56;6028217;23;20105;-71
2022/07/13 05:28:03;;;;;;;7.00;6.70;;;;;;;21.15;71.06;101727.66;6026615;23;20018;-72
2022/07/13 05:30:30;;;;;;;5.30;5.10;;;;;;;20.97;71.36;101705.97;6030360;23;20091;-72
2022/07/13 05:32:56;;;;;;;7.00;6.70;;;;;;;21.05;71.38;101707.06;6008162;23;20053;-72
2022/07/13 05:35:23;;;;;;;5.35;5.15;;;;;;;21.28;70.61;101734.56;6025686;23;20263;-71
2022/07/13 05:37:49;;;;;;;6.30;5.82;;;;;;;21.25;70.96;101724.16;6023688;23;20529;-72
2022/07/13 05:40:16;;;;;;;5.50;5.20;;;;;;;21.26;70.50;101725.00;6029134;23;20085;-72
2022/07/13 05:42:43;;;;;;;5.60;5.30;;;;;;;21.49;70.77;101752.53;6030738;23;20014;-72
2022/07/13 05:45:09;;;;;;;5.60;5.20;;;;;;;21.55;69.69;101740.47;6018188;23;20021;-72
2022/07/13 05:47:36;;;;;;;5.28;5.03;;;;;;;21.89;69.36;101775.97;6032047;23;20011;-72
2022/07/13 05:50:03;;;;;;;6.95;6.65;;;;;;;22.10;68.36;101786.69;6022335;23;20023;-72
2022/07/13 05:52:29;;;;;;;5.50;5.25;;;;;;;22.17;67.12;101770.94;6029406;23;20700;-72
2022/07/13 05:54:56;;;;;;;6.28;5.97;;;;;;;22.26;66.81;101764.88;6030127;23;20067;-72
2022/07/13 05:57:30;;;;;;;5.50;5.25;;;;;;;22.60;65.02;101796.75;6022384;23;20076;-72
2022/07/13 05:59:56;;;;;;;6.85;6.55;;;;;;;22.76;64.16;101783.75;6032175;23;20361;-72
2022/07/13 06:02:23;;;;;;;5.60;5.30;;;;;;;23.23;61.45;101788.63;6026843;23;20023;-72
2022/07/13 06:04:49;;;;;;;6.40;6.05;;;;;;;23.88;60.52;101821.22;6025064;23;20021;-73
2022/07/13 06:07:15;;;;;;;5.68;5.38;;;;;;;24.75;57.57;101874.00;5999657;23;20078;-73
2022/07/13 06:09:42;;;;;;;6.00;5.70;;;;;;;24.81;55.13;101800.94;6029632;23;20461;-73
2022/07/13 06:12:08;;;;;;;7.00;6.60;;;;;;;25.71;52.64;102053.13;6027267;23;20078;-72
2022/07/13 06:14:35;;;;;;;5.88;5.57;;;;;;;25.85;52.83;101950.44;6023699;23;20115;-73
2022/07/13 06:17:01;;;;;;;7.35;6.75;;;;;;;25.45;53.62;101885.25;6035202;23;20268;-72
2022/07/13 06:19:28;;;;;;;5.90;5.60;;;;;;;25.23;55.07;101867.69;6023284;23;20019;-72
2022/07/13 06:21:55;;;;;;;7.68;7.28;;;;;;;24.91;55.54;101832.28;6028238;23;20034;-73
2022/07/13 06:24:21;;;;;;;6.20;5.90;;;;;;;24.76;56.22;101821.19;6027097;23;20084;-72
2022/07/13 06:26:48;;;;;;;6.28;5.97;;;;;;;23.67;56.30;101656.00;5999874;23;20355;-73
2022/07/13 06:29:15;;;;;;;5.60;5.40;;;;;;;24.28;57.24;101783.53;6030328;23;20011;-72
2022/07/13 06:31:41;;;;;;;5.70;5.47;;;;;;;24.14;58.01;101769.72;5999080;23;20008;-72
2022/07/13 06:34:08;;;;;;;5.80;5.50;;;;;;;24.09;58.66;101780.84;6024651;23;20033;-73
2022/07/13 06:36:34;;;;;;;5.43;5.22;;;;;;;24.09;58.57;101767.44;5995934;23;20058;-72
2022/07/13 06:39:01;;;;;;;7.68;7.15;;;;;;;23.99;58.17;101735.28;6025784;23;20023;-73
2022/07/13 06:41:27;;;;;;;5.65;5.35;;;;;;;24.14;59.08;101770.56;6034013;23;20533;-73
2022/07/13 06:43:54;;;;;;;6.88;6.57;;;;;;;24.49;58.95;101793.22;6017244;23;20518;-71
2022/07/13 06:46:23;;;;;;;6.25;5.85;;;;;;;24.47;56.28;101757.63;6010578;23;20090;-72
2022/07/13 06:48:52;;;;;;;6.53;6.22;;;;;;;25.30;54.84;101795.41;6023001;23;20098;-72
2022/07/13 06:51:18;;;;;;;5.57;5.28;;;;;;;25.67;55.49;101805.19;6028737;23;20018;-72
2022/07/13 06:53:45;;;;;;;5.60;5.35;;;;;;;24.87;52.50;101624.97;6017816;23;20031;-72
2022/07/13 06:56:11;;;;;;;5.60;5.30;;;;;;;25.90;53.04;101788.59;6007261;23;20022;-73
2022/07/13 06:58:38;;;;;;;5.72;5.43;;;;;;;25.92;52.37;101767.81;6024087;23;20085;-73
2022/07/13 07:01:04;;;;;;;5.40;5.20;;;;;;;26.38;52.46;101804.34;5971475;23;20871;-73
2022/07/13 07:03:31;;;;;;;5.68;5.30;;;;;;;26.56;51.94;101790.84;6024414;23;20023;-73
2022/07/13 07:05:58;;;;;;;6.65;6.35;;;;;;;26.81;51.11;101809.88;6023050;23;20146;-72
2022/07/13 07:08:24;;;;;;;5.50;5.30;;;;;;;27.24;49.75;101818.84;6022817;23;20093;-71
2022/07/13 07:10:51;;;;;;;6.65;6.35;;;;;;;28.05;47.40;101856.00;6004641;23;20023;-73
2022/07/13 07:13:17;;;;;;;5.72;5.43;;;;;;;28.21;46.35;101855.19;5999659;23;20075;-71
2022/07/13 07:15:44;;;;;;;5.97;5.68;;;;;;;27.84;46.90;101775.53;6027486;23;20103;-72
2022/07/13 07:18:12;;;;;;;5.85;5.55;;;;;;;27.62;45.83;101728.47;6024734;23;20015;-74
2022/07/13 07:20:39;;;;;;;5.80;5.50;;;;;;;27.89;46.33;101785.84;6028976;23;20126;-71
2022/07/13 07:23:05;;;;;;;6.22;5.82;;;;;;;27.78;46.62;101762.69;6025759;23;20389;-72
2022/07/13 07:25:32;;;;;;;6.15;5.82;;;;;;;27.67;46.01;101746.84;6034781;23;20039;-72
2022/07/13 07:27:58;;;;;;;7.47;7.07;;;;;;;27.81;47.31;101775.03;6019054;23;20297;-71
2022/07/13 07:30:25;;;;;;;6.15;5.75;;;;;;;27.59;45.91;101723.41;6028075;23;20067;-72
2022/07/13 07:32:51;;;;;;;6.80;6.50;;;;;;;27.90;45.83;101767.78;6024757;23;20277;-72
2022/07/13 07:35:19;;;;;;;6.10;5.78;;;;;;;27.96;45.46;101772.50;6024431;23;20495;-73
2022/07/13 07:37:45;;;;;;;5.95;5.65;;;;;;;27.80;45.75;101747.22;6023348;23;20300;-74
2022/07/13 07:40:12;;;;;;;5.68;5.47;;;;;;;27.91;45.86;101754.16;5993263;23;20423;-73
2022/07/13 07:42:39;;;;;;;5.80;5.50;;;;;;;27.62;45.43;101709.59;6018476;23;20163;-73
2022/07/13 07:45:08;;;;;;;6.00;5.70;;;;;;;27.99;45.03;101747.91;6030528;23;20391;-73
2022/07/13 07:47:35;;;;;;;5.80;5.50;;;;;;;28.06;45.09;101751.59;6019647;23;20021;-73
2022/07/13 07:50:01;;;;;;;6.97;6.63;;;;;;;28.01;44.79;101738.63;6021856;23;20024;-72
2022/07/13 07:52:28;;;;;;;5.88;5.57;;;;;;;28.16;46.03;101763.06;6027027;23;20038;-73
2022/07/13 07:55:15;;;;;;;5.97;5.68;;;;;;;27.43;44.82;101740.41;6059302;23;20034;-73
2022/07/13 07:57:50;;;;;;;5.80;5.50;;;;;;;27.63;46.70;101773.31;6030898;23;20660;-73
2022/07/13 08:00:17;;;;;;;5.80;5.50;;;;;;;27.44;46.30;101765.50;6021562;23;20261;-72
2022/07/13 08:02:44;;;;;;;5.88;5.57;;;;;;;27.33;46.06;101753.19;6026431;23;20102;-72
2022/07/13 08:05:11;;;;;;;5.80;5.50;;;;;;;27.41;45.01;101780.16;6024981;23;20085;-72
2022/07/13 08:07:39;;;;;;;5.80;5.50;;;;;;;27.41;44.82;101776.63;6023334;23;20089;-70
2022/07/13 08:10:06;;;;;;;6.13;5.72;;;;;;;27.67;44.62;101784.59;6020863;23;20181;-72
2022/07/13 08:12:53;;;;;;;5.70;5.40;;;;;;;28.09;43.80;101766.63;6016995;23;20064;-70
2022/07/13 08:15:21;;;;;;;5.80;5.50;;;;;;;28.25;44.18;101761.22;6027715;23;20334;-72
2022/07/13 08:17:48;;;;;;;6.20;5.93;;;;;;;27.88;42.40;101651.13;6020749;23;20086;-72
2022/07/13 08:20:15;;;;;;;5.45;5.22;;;;;;;29.04;41.30;101804.56;6026097;23;20441;-72
2022/07/13 08:22:48;;;;;;;5.95;5.65;;;;;;;29.14;41.07;101796.28;6018896;23;20062;-73
2022/07/13 08:25:15;;;;;;;5.75;5.45;;;;;;;28.96;40.65;101742.47;6029456;23;20026;-71
2022/07/13 08:27:42;;;;;;;5.88;5.55;;;;;;;29.33;39.16;101760.72;6022778;23;20054;-71
2022/07/13 08:30:10;;;;;;;5.80;5.50;;;;;;;28.83;39.47;101695.22;6024656;23;20156;-71
2022/07/13 08:32:38;;;;;;;5.72;5.30;;;;;;;28.87;40.54;101694.84;6024744;23;20328;-72
2022/07/13 08:40:41;;;;;;;6.00;5.70;;;;;;;28.95;40.14;101757.84;6034825;23;20018;-71
2022/07/13 08:43:08;;;;;;;5.65;5.38;;;;;;;29.03;39.52;101814.56;6012202;23;20030;-70
2022/07/13 08:45:35;;;;;;;5.68;5.38;;;;;;;28.47;40.32;101797.47;5995690;23;20019;-72
2022/07/13 08:48:12;;;;;;;6.80;6.50;;;;;;;29.09;40.62;102044.63;6018975;23;20028;-72
2022/07/13 08:50:39;;;;;;;5.38;5.18;;;;;;;29.28;40.50;101855.03;6022313;23;20098;-72
2022/07/13 08:53:06;;;;;;;5.93;5.63;;;;;;;30.06;38.75;101887.63;6002951;23;20075;-73
2022/07/13 08:55:35;;;;;;;5.72;5.43;;;;;;;30.19;38.04;101868.88;6026892;23;20011;-72
2022/07/13 08:58:02;;;;;;;6.93;6.63;;;;;;;30.12;37.42;101839.00;6020048;23;20671;-72
2022/07/13 09:00:28;;;;;;;6.00;5.70;;;;;;;30.40;36.07;101844.69;6031587;23;20274;-72
2022/07/13 09:02:55;;;;;;;6.60;6.30;;;;;;;30.69;35.03;101954.19;6016766;23;20025;-72
2022/07/13 09:05:25;;;;;;;6.07;5.78;;;;;;;30.77;35.79;101883.66;6027029;23;20027;-72
2022/07/13 09:08:12;;;;;;;7.03;6.53;;;;;;;30.61;33.32;101870.25;6017020;23;20026;-72
2022/07/13 09:10:57;;;;;;;5.82;5.53;;;;;;;30.71;34.33;101876.25;6022067;23;20135;-71
2022/07/13 09:13:36;;;;;;;5.60;5.30;;;;;;;30.43;34.02;101862.47;6022752;23;20022;-72
2022/07/13 09:16:16;;;;;;;6.80;6.50;;;;;;;30.47;33.97;101838.56;6021424;23;20022;-72
2022/07/13 09:18:47;;;;;;;5.57;5.30;;;;;;;30.15;34.33;101810.69;6019706;23;20041;-73
2022/07/13 09:21:14;;;;;;;5.80;5.50;;;;;;;30.11;34.62;101840.03;6025819;23;20163;-71
2022/07/13 09:23:41;;;;;;;6.25;5.95;;;;;;;29.00;34.56;101679.75;6027075;23;20518;-74
2022/07/13 09:26:08;;;;;;;5.95;5.65;;;;;;;29.55;35.51;101804.22;6048671;23;20371;-74
2022/07/13 09:28:45;;;;;;;5.80;5.50;;;;;;;29.33;35.54;101774.25;6027050;23;20561;-71
2022/07/13 09:31:13;;;;;;;5.50;5.25;;;;;;;30.07;35.94;101833.28;6015512;23;20073;-72
2022/07/13 09:33:43;;;;;;;5.63;5.35;;;;;;;30.61;34.42;101814.22;6030437;23;20448;-72
2022/07/13 09:36:22;;;;;;;5.82;5.53;;;;;;;30.58;34.50;101798.31;5985940;23;20267;-72
2022/07/13 09:38:53;;;;;;;6.13;5.82;;;;;;;29.61;34.49;101649.28;6014357;23;20014;-72
2022/07/13 09:41:21;;;;;;;5.83;5.53;;;;;;;30.34;33.48;101942.09;6015254;23;20019;-72
2022/07/13 09:46:52;;;;;;;7.25;6.88;;;;;;;30.06;34.62;101837.00;6029102;23;20502;-72
2022/07/13 09:49:34;;;;;;;5.57;5.28;;;;;;;30.21;34.11;101808.13;6001768;23;20035;-72
2022/07/13 09:52:04;;;;;;;5.75;5.45;;;;;;;30.76;34.44;101870.28;6027113;23;20021;-71
2022/07/13 09:54:33;;;;;;;6.00;5.70;;;;;;;30.79;33.50;101859.06;6030647;23;20018;-72
2022/07/13 09:57:03;;;;;;;7.05;6.75;;;;;;;30.60;32.67;101817.94;6023454;23;20064;-72
2022/07/13 09:59:30;;;;;;;5.65;5.35;;;;;;;30.17;33.45;101787.84;6037567;23;20503;-72
2022/07/13 10:01:57;;;;;;;7.50;7.15;;;;;;;29.90;33.92;101875.88;6020559;23;20026;-74
2022/07/13 10:04:24;;;;;;;6.00;5.70;;;;;;;29.88;35.02;101833.78;6023324;23;20532;-72
2022/07/13 10:07:10;;;;;;;5.80;5.50;;;;;;;29.44;34.80;101752.19;6015760;23;20011;-73
2022/07/13 10:09:38;;;;;;;5.57;5.35;;;;;;;29.80;34.57;101827.38;6022664;23;20407;-73
2022/07/13 10:12:09;;;;;;;6.70;6.30;;;;;;;29.31;35.00;101760.06;6026069;23;20037;-73
2022/07/13 10:14:37;;;;;;;5.80;5.50;;;;;;;29.62;35.26;101754.59;6020787;23;20061;-73
2022/07/13 10:17:11;;;;;;;6.85;6.55;;;;;;;29.62;35.07;101780.81;6030672;23;20034;-73
2022/07/13 10:19:49;;;;;;;5.70;5.40;;;;;;;29.77;35.51;101741.16;6024267;23;20444;-73
2022/07/13 10:22:21;;;;;;;6.20;5.80;;;;;;;29.95;35.50;101754.38;6025116;23;20064;-73
2022/07/13 10:24:57;;;;;;;6.25;5.80;;;;;;;29.25;35.67;101598.53;6023478;23;20086;-74
2022/07/13 10:27:31;;;;;;;6.15;5.80;;;;;;;30.32;35.49;101784.38;6039984;23;20034;-73
2022/07/13 10:30:09;;;;;;;6.78;6.47;;;;;;;30.47;35.51;101789.78;6023248;23;20347;-73
2022/07/13 10:32:40;;;;;;;5.82;5.50;;;;;;;30.27;34.60;101775.91;6028550;23;20045;-73
2022/07/13 10:35:09;;;;;;;6.60;6.20;;;;;;;30.26;35.01;101772.38;6024078;23;20164;-73
2022/07/13 10:40:29;;;;;;;5.80;5.50;;;;;;;29.76;35.58;101696.19;6029277;23;20058;-73
2022/07/13 10:43:00;;;;;;;7.55;7.15;;;;;;;30.35;35.60;101775.84;6023275;23;20465;-74
2022/07/13 10:45:32;;;;;;;5.75;5.45;;;;;;;30.63;36.46;101786.91;6026623;23;20019;-72
2022/07/13 10:48:04;;;;;;;7.32;6.93;;;;;;;30.81;35.81;101843.44;6024905;23;20430;-73
2022/07/13 10:50:38;;;;;;;5.88;5.57;;;;;;;30.66;35.28;101810.94;6027106;23;20023;-74
2022/07/13 10:53:07;;;;;;;6.05;5.75;;;;;;;30.79;35.45;101899.72;6018009;23;20093;-71
2022/07/13 10:55:47;;;;;;;5.85;5.55;;;;;;;30.95;35.49;101839.09;6023610;23;20067;-71
2022/07/13 10:58:29;;;;;;;5.90;5.60;;;;;;;31.43;35.34;101847.63;6029043;23;20102;-71
2022/07/13 11:00:57;;;;;;;6.63;6.32;;;;;;;32.08;34.60;101875.78;6021098;23;20012;-72
2022/07/13 11:03:35;;;;;;;5.88;5.57;;;;;;;32.64;33.91;101850.56;6019867;23;20608;-73
2022/07/13 11:06:07;;;;;;;7.10;6.80;;;;;;;32.64;33.08;101834.25;6023196;23;20062;-73
2022/07/13 11:08:37;;;;;;;5.80;5.50;;;;;;;32.62;33.63;101830.06;6023673;23;20101;-72
2022/07/13 11:11:17;;;;;;;6.57;6.18;;;;;;;32.11;33.82;101779.47;6022913;23;20022;-74
2022/07/13 11:13:45;;;;;;;6.10;5.80;;;;;;;31.80;34.54;101748.06;6025289;23;20340;-73
2022/07/13 11:16:13;;;;;;;6.00;5.70;;;;;;;31.85;34.64;101732.03;6022560;23;20082;-72
2022/07/13 11:18:41;;;;;;;5.70;5.40;;;;;;;31.65;35.02;101703.88;6029212;23;20089;-71
2022/07/13 11:21:10;;;;;;;5.63;5.32;;;;;;;31.92;34.53;101735.66;6018279;23;20576;-72
2022/07/13 11:26:40;;;;;;;5.85;5.55;;;;;;;32.45;34.35;101727.03;6013845;23;20035;-74
2022/07/13 11:29:29;;;;;;;5.80;5.50;;;;;;;32.25;33.66;101707.06;6023685;23;21223;-73
2022/07/13 11:31:57;;;;;;;7.50;7.18;;;;;;;31.97;34.91;101680.75;6031419;23;20456;-74
2022/07/13 11:34:25;;;;;;;5.78;5.47;;;;;;;31.71;34.63;101663.22;6028936;23;20089;-71
2022/07/13 11:36:57;;;;;;;7.15;6.75;;;;;;;31.41;35.38;101668.78;6025790;23;20038;-70
2022/07/13 11:39:29;;;;;;;6.10;5.80;;;;;;;32.07;34.37;101835.22;6024280;23;20090;-74
2022/07/13 11:41:58;;;;;;;7.20;6.90;;;;;;;32.35;34.11;101822.50;6017079;23;20029;-73
2022/07/13 11:44:32;;;;;;;6.65;6.15;;;;;;;31.90;34.29;101908.75;6027944;23;20088;-73